Time;durP1;ratioP1;P1;durP2;ratioP2;P2;SDS_P1;SDS_P2;PMS_P1;PMS_P2;Temp;Humidity;BMP_temperature;BMP_pressure;BME280_temperature;BME280_humidity;BME280_pressure;Samples;Min_cycle;Max_cycle;Signal;HPM_P1;HPM_P2
2023/10/15 00:01:53;;;;;;;4.90;1.85;;;7.30;99.90;;;;;;5001068;28;20039;-75
2023/10/15 00:04:19;;;;;;;6.78;2.10;;;7.20;99.90;;;;;;5003677;28;20589;-74
2023/10/15 00:06:45;;;;;;;5.93;1.90;;;7.20;99.90;;;;;;5006692;28;20124;-75
2023/10/15 00:09:13;;;;;;;5.50;2.15;;;7.20;99.90;;;;;;4992753;28;20173;-74
2023/10/15 00:11:40;;;;;;;6.85;2.00;;;7.20;99.90;;;;;;5001377;28;20042;-74
2023/10/15 00:14:06;;;;;;;4.03;1.77;;;7.10;99.90;;;;;;5012828;28;20045;-75
2023/10/15 00:16:33;;;;;;;5.80;2.03;;;7.00;99.90;;;;;;4980741;28;20037;-77
2023/10/15 00:19:05;;;;;;;4.93;2.08;;;7.00;99.90;;;;;;5005813;28;20501;-75
2023/10/15 00:21:31;;;;;;;4.55;2.03;;;6.90;99.90;;;;;;4995387;28;20049;-74
2023/10/15 00:23:56;;;;;;;4.57;1.90;;;6.90;99.90;;;;;;4996623;28;20413;-74
2023/10/15 00:26:22;;;;;;;6.95;2.20;;;6.80;99.90;;;;;;4978801;28;20084;-74
2023/10/15 00:28:48;;;;;;;7.13;2.10;;;6.80;99.90;;;;;;4996009;28;20093;-75
2023/10/15 00:31:14;;;;;;;7.32;1.98;;;6.80;99.90;;;;;;4988255;28;20072;-74
2023/10/15 00:33:42;;;;;;;5.15;2.00;;;6.80;99.90;;;;;;4981563;28;20046;-74
2023/10/15 00:36:18;;;;;;;6.78;2.00;;;6.70;99.90;;;;;;5000835;28;20104;-74
2023/10/15 00:38:45;;;;;;;6.80;1.95;;;6.70;99.90;;;;;;4966450;28;20043;-74
2023/10/15 00:41:14;;;;;;;9.07;2.30;;;6.70;99.90;;;;;;4995364;28;20093;-74
2023/10/15 00:43:59;;;;;;;5.88;1.98;;;6.70;99.90;;;;;;5004454;28;20133;-75
2023/10/15 00:46:28;;;;;;;7.30;1.67;;;6.70;99.90;;;;;;4975309;28;20430;-75
2023/10/15 00:49:02;;;;;;;4.07;1.52;;;6.70;99.90;;;;;;5000013;28;20421;-76
2023/10/15 00:51:27;;;;;;;5.30;2.25;;;6.70;99.90;;;;;;5001664;28;20046;-75
2023/10/15 00:53:58;;;;;;;4.00;1.80;;;6.70;99.90;;;;;;4971688;28;20216;-75
2023/10/15 00:56:33;;;;;;;5.57;1.80;;;6.70;99.90;;;;;;5003764;28;20100;-76
2023/10/15 01:01:34;;;;;;;3.97;1.65;;;6.60;99.90;;;;;;5003024;28;20042;-75
2023/10/15 01:04:03;;;;;;;5.72;2.00;;;6.60;99.90;;;;;;5002550;28;20038;-77
2023/10/15 01:09:10;;;;;;;4.25;1.50;;;6.60;99.90;;;;;;5001965;28;20038;-76
2023/10/15 01:11:56;;;;;;;5.38;1.63;;;6.60;99.90;;;;;;5001760;28;20046;-76
2023/10/15 01:14:32;;;;;;;4.10;1.90;;;6.60;99.90;;;;;;4986826;28;20042;-75
2023/10/15 01:17:02;;;;;;;5.03;1.85;;;6.60;99.90;;;;;;4969456;28;20097;-75
2023/10/15 01:19:32;;;;;;;4.82;1.73;;;6.60;99.90;;;;;;4985283;28;20486;-77
2023/10/15 01:22:02;;;;;;;5.68;1.70;;;6.60;99.90;;;;;;4981332;28;20138;-77
2023/10/15 01:24:32;;;;;;;6.05;1.80;;;6.50;99.90;;;;;;4997412;28;20045;-77
2023/10/15 01:26:59;;;;;;;5.57;1.50;;;6.60;99.90;;;;;;4970526;28;20492;-76
2023/10/15 01:29:29;;;;;;;6.28;1.70;;;6.60;99.90;;;;;;4986071;28;20046;-75
2023/10/15 01:32:11;;;;;;;3.75;1.67;;;6.50;99.90;;;;;;4981676;28;20120;-77
2023/10/15 01:34:37;;;;;;;3.70;1.90;;;6.50;99.90;;;;;;4970917;28;20038;-76
2023/10/15 01:37:24;;;;;;;4.70;2.20;;;6.50;99.90;;;;;;4990948;28;20323;-75
2023/10/15 01:39:51;;;;;;;3.28;1.50;;;6.50;99.90;;;;;;4994912;28;20054;-76
2023/10/15 01:42:32;;;;;;;4.75;1.75;;;6.50;99.90;;;;;;4996407;28;20038;-76
2023/10/15 01:48:24;;;;;;;5.50;2.35;;;6.50;99.90;;;;;;4980903;28;20039;-75
2023/10/15 01:50:49;;;;;;;4.25;2.28;;;6.50;99.90;;;;;;4988042;28;20116;-76
2023/10/15 01:53:16;;;;;;;4.65;1.95;;;6.50;99.90;;;;;;4999913;28;20038;-76
2023/10/15 01:55:53;;;;;;;6.18;2.00;;;6.60;99.90;;;;;;5005548;28;20038;-76
2023/10/15 01:58:40;;;;;;;3.30;1.58;;;6.60;99.90;;;;;;5000442;28;20042;-76
2023/10/15 02:01:20;;;;;;;3.85;2.17;;;6.60;99.90;;;;;;4985540;28;20069;-76
2023/10/15 02:03:46;;;;;;;2.97;1.58;;;6.60;99.90;;;;;;4979649;28;20041;-75
2023/10/15 02:06:13;;;;;;;2.55;1.58;;;6.60;99.90;;;;;;4975335;28;20057;-76
2023/10/15 02:08:39;;;;;;;4.05;1.80;;;6.60;99.90;;;;;;4995175;28;20584;-75
2023/10/15 02:11:21;;;;;;;5.97;1.83;;;6.60;99.90;;;;;;4988552;28;20050;-77
2023/10/15 02:13:47;;;;;;;3.63;1.58;;;6.60;99.90;;;;;;4985174;28;20440;-77
2023/10/15 02:16:25;;;;;;;5.13;1.90;;;6.50;99.90;;;;;;5000981;28;20513;-78
2023/10/15 02:18:51;;;;;;;4.60;1.92;;;6.50;99.90;;;;;;4995590;28;20038;-77
2023/10/15 02:21:17;;;;;;;5.55;1.85;;;6.40;99.90;;;;;;4994407;28;20505;-77
2023/10/15 02:23:50;;;;;;;6.30;2.30;;;6.40;99.90;;;;;;4979511;28;20100;-77
2023/10/15 02:26:30;;;;;;;5.55;1.70;;;6.40;99.90;;;;;;5001771;28;20120;-77
2023/10/15 02:29:05;;;;;;;6.65;1.63;;;6.40;99.90;;;;;;4992707;28;20046;-76
2023/10/15 02:31:31;;;;;;;4.28;1.88;;;6.30;99.90;;;;;;5006086;28;20081;-76
2023/10/15 02:33:57;;;;;;;6.85;2.03;;;6.30;99.90;;;;;;4974252;28;20073;-76
2023/10/15 02:36:26;;;;;;;4.15;1.45;;;6.30;99.90;;;;;;4993114;28;20398;-77
2023/10/15 02:38:55;;;;;;;2.22;1.27;;;6.20;99.90;;;;;;4985548;28;20043;-76
2023/10/15 02:41:46;;;;;;;5.20;1.92;;;6.20;99.90;;;;;;4986073;28;20113;-77
2023/10/15 02:44:15;;;;;;;5.10;2.00;;;6.20;99.90;;;;;;4988783;28;20042;-77
2023/10/15 02:46:47;;;;;;;8.45;2.17;;;6.10;99.90;;;;;;5003208;28;20085;-76
2023/10/15 02:49:17;;;;;;;7.57;1.80;;;6.20;99.90;;;;;;5006710;28;20454;-77
2023/10/15 02:51:45;;;;;;;9.73;2.20;;;6.20;99.90;;;;;;4991686;28;20050;-76
2023/10/15 02:54:36;;;;;;;8.25;2.20;;;6.10;99.90;;;;;;4996147;28;20030;-76
2023/10/15 02:57:03;;;;;;;5.72;2.05;;;6.10;99.90;;;;;;4994643;28;20068;-76
2023/10/15 02:59:31;;;;;;;4.20;1.92;;;6.10;99.90;;;;;;4980822;28;20375;-76
2023/10/15 03:01:57;;;;;;;5.95;1.83;;;6.00;99.90;;;;;;4984152;28;20046;-76
2023/10/15 03:04:32;;;;;;;5.35;1.83;;;6.00;99.90;;;;;;5006796;28;20486;-75
2023/10/15 03:07:19;;;;;;;4.22;1.73;;;6.00;99.90;;;;;;4996192;28;20577;-77
2023/10/15 03:10:06;;;;;;;0.70;0.65;;;6.00;99.90;;;;;;5010476;28;20422;-77
2023/10/15 03:12:33;;;;;;;5.93;1.77;;;6.00;99.90;;;;;;5009996;28;20041;-77
2023/10/15 03:15:00;;;;;;;4.68;1.80;;;6.10;99.90;;;;;;4973335;28;20042;-76
2023/10/15 03:17:29;;;;;;;6.53;2.00;;;6.10;99.90;;;;;;5004708;28;20096;-78
2023/10/15 03:20:11;;;;;;;4.63;1.80;;;6.20;99.90;;;;;;5007449;28;20130;-76
2023/10/15 03:22:38;;;;;;;3.65;1.85;;;6.20;99.90;;;;;;4993333;28;20061;-77
2023/10/15 03:25:13;;;;;;;4.97;1.50;;;6.20;99.90;;;;;;5007353;28;20041;-78
2023/10/15 03:27:54;;;;;;;4.63;1.73;;;6.20;99.90;;;;;;5008686;28;20582;-77
2023/10/15 03:30:23;;;;;;;6.72;2.08;;;6.20;99.90;;;;;;5005720;28;20038;-77
2023/10/15 03:32:52;;;;;;;12.18;2.10;;;6.20;99.90;;;;;;5008223;28;20030;-76
2023/10/15 03:35:33;;;;;;;2.97;0.70;;;6.20;99.90;;;;;;4973066;28;20530;-76
2023/10/15 03:38:05;;;;;;;4.43;1.70;;;6.20;99.90;;;;;;4991081;28;20034;-76
2023/10/15 03:40:46;;;;;;;5.47;1.90;;;6.10;99.90;;;;;;4996105;28;20594;-77
2023/10/15 03:43:20;;;;;;;3.88;1.50;;;6.10;99.90;;;;;;4992778;28;20049;-78
2023/10/15 03:45:52;;;;;;;1.73;1.02;;;6.00;99.90;;;;;;4988841;28;20034;-77
2023/10/15 03:48:28;;;;;;;4.75;1.70;;;6.00;99.90;;;;;;5006324;28;20030;-76
2023/10/15 03:50:55;;;;;;;4.78;1.85;;;6.00;99.90;;;;;;5003594;28;20046;-76
2023/10/15 03:53:27;;;;;;;6.60;2.30;;;5.90;99.90;;;;;;4984308;28;20045;-76
2023/10/15 03:55:55;;;;;;;5.85;1.67;;;5.90;99.90;;;;;;5005196;28;20081;-78
2023/10/15 03:58:22;;;;;;;6.20;2.22;;;5.80;99.90;;;;;;4991570;28;20050;-77
2023/10/15 04:00:55;;;;;;;4.20;1.90;;;5.80;99.90;;;;;;5011255;28;20046;-77
2023/10/15 04:03:28;;;;;;;5.28;1.98;;;5.80;99.90;;;;;;4977342;28;20034;-76
2023/10/15 04:06:05;;;;;;;5.00;1.58;;;5.70;99.90;;;;;;4992580;28;20149;-77
2023/10/15 04:08:31;;;;;;;3.13;2.00;;;5.70;99.90;;;;;;4997363;28;20138;-77
2023/10/15 04:11:00;;;;;;;5.40;2.00;;;5.70;99.90;;;;;;5004742;28;20052;-78
2023/10/15 04:13:27;;;;;;;3.25;1.70;;;5.70;99.90;;;;;;5008372;28;20120;-76
2023/10/15 04:15:56;;;;;;;6.82;2.10;;;5.60;99.90;;;;;;4988830;28;20073;-76
2023/10/15 04:18:23;;;;;;;6.18;2.00;;;5.60;99.90;;;;;;5004386;28;20437;-76
2023/10/15 04:20:53;;;;;;;5.22;1.77;;;5.60;99.90;;;;;;5003432;28;20038;-76
2023/10/15 04:23:31;;;;;;;5.10;1.80;;;5.60;99.90;;;;;;4990215;28;20034;-76
2023/10/15 04:26:07;;;;;;;5.68;2.20;;;5.60;99.90;;;;;;4980535;28;20042;-75
2023/10/15 04:28:36;;;;;;;0.50;0.50;;;5.60;99.90;;;;;;5010848;28;20030;-77
2023/10/15 04:31:11;;;;;;;4.47;1.77;;;5.60;99.90;;;;;;5011279;28;20077;-77
2023/10/15 04:33:41;;;;;;;3.55;1.90;;;5.60;99.90;;;;;;5006679;28;20042;-76
2023/10/15 04:36:10;;;;;;;5.20;1.92;;;5.50;99.90;;;;;;4994961;28;20448;-76
2023/10/15 04:38:38;;;;;;;5.22;2.05;;;5.60;99.90;;;;;;5006854;28;20049;-77
2023/10/15 04:41:04;;;;;;;5.38;2.05;;;5.50;99.90;;;;;;4977504;28;20047;-77
2023/10/15 04:43:41;;;;;;;2.97;1.88;;;5.60;99.90;;;;;;5007856;28;20424;-75
2023/10/15 04:46:17;;;;;;;9.40;2.47;;;5.50;99.90;;;;;;4992728;28;20404;-76
2023/10/15 04:48:45;;;;;;;9.05;2.15;;;5.60;99.90;;;;;;4987858;28;20363;-76
2023/10/15 04:51:13;;;;;;;4.45;1.75;;;5.50;99.90;;;;;;4988469;28;20058;-77
2023/10/15 04:53:48;;;;;;;2.47;0.93;;;5.60;99.90;;;;;;4994603;28;20050;-76
2023/10/15 04:56:14;;;;;;;5.10;1.90;;;5.60;99.90;;;;;;5005868;28;20449;-76
2023/10/15 04:58:40;;;;;;;9.45;2.28;;;5.60;99.90;;;;;;5002031;28;20046;-76
2023/10/15 05:01:08;;;;;;;4.72;1.70;;;5.60;99.90;;;;;;5001147;28;20412;-76
2023/10/15 05:03:36;;;;;;;4.78;1.92;;;5.60;99.90;;;;;;5003402;28;20034;-77
2023/10/15 05:06:03;;;;;;;5.93;2.00;;;5.60;99.90;;;;;;5005830;28;20069;-76
2023/10/15 05:08:29;;;;;;;6.35;2.38;;;5.60;99.90;;;;;;4990553;28;20130;-76
2023/10/15 05:10:55;;;;;;;4.18;1.77;;;5.60;99.90;;;;;;5003451;28;20037;-76
2023/10/15 05:13:24;;;;;;;5.68;1.77;;;5.60;99.90;;;;;;5007157;28;20398;-76
2023/10/15 05:15:51;;;;;;;4.20;1.90;;;5.60;99.90;;;;;;5006911;28;20136;-77
2023/10/15 05:18:18;;;;;;;3.97;1.77;;;5.60;99.90;;;;;;4974149;28;20038;-77
2023/10/15 05:20:48;;;;;;;3.28;1.50;;;5.60;99.90;;;;;;5009396;28;20046;-76
2023/10/15 05:23:15;;;;;;;2.58;1.48;;;5.60;99.90;;;;;;4993242;28;20041;-76
2023/10/15 05:25:41;;;;;;;6.50;1.05;;;5.60;99.90;;;;;;5005259;28;20492;-76
2023/10/15 05:28:07;;;;;;;3.72;1.60;;;5.60;99.90;;;;;;5004541;28;20034;-76
2023/10/15 05:30:33;;;;;;;4.35;1.60;;;5.60;99.90;;;;;;4994456;28;20405;-76
2023/10/15 05:33:00;;;;;;;6.43;1.60;;;5.60;99.90;;;;;;5004178;28;20045;-76
2023/10/15 05:35:30;;;;;;;3.72;1.60;;;5.60;99.90;;;;;;4988992;28;20411;-77
2023/10/15 05:37:56;;;;;;;1.33;0.73;;;5.60;99.90;;;;;;4990746;28;20512;-77
2023/10/15 05:40:22;;;;;;;5.60;1.55;;;5.70;99.90;;;;;;4992394;28;20045;-77
2023/10/15 05:42:48;;;;;;;3.63;1.50;;;5.70;99.90;;;;;;4990551;28;20109;-77
2023/10/15 05:45:18;;;;;;;5.95;1.40;;;5.70;99.90;;;;;;5002624;28;20041;-77
2023/10/15 05:47:44;;;;;;;3.53;1.45;;;5.70;99.90;;;;;;4989471;28;20049;-76
2023/10/15 05:50:10;;;;;;;4.80;1.58;;;5.70;99.90;;;;;;4987702;28;20087;-77
2023/10/15 05:52:36;;;;;;;3.08;1.30;;;5.70;99.90;;;;;;5002467;28;20077;-76
2023/10/15 05:55:02;;;;;;;4.00;1.55;;;5.70;99.90;;;;;;5002565;28;20085;-76
2023/10/15 05:57:28;;;;;;;4.10;1.52;;;5.70;99.90;;;;;;5004940;28;20497;-77
2023/10/15 05:59:57;;;;;;;3.40;1.45;;;5.80;99.90;;;;;;5002224;28;20151;-76
2023/10/15 06:02:23;;;;;;;4.95;1.75;;;5.80;99.90;;;;;;4985324;28;20043;-76
2023/10/15 06:04:49;;;;;;;1.33;1.00;;;5.80;99.90;;;;;;4982128;28;20358;-75
2023/10/15 06:07:15;;;;;;;3.88;1.55;;;5.80;99.90;;;;;;4985058;28;20043;-75
2023/10/15 06:09:44;;;;;;;3.55;1.58;;;5.80;99.90;;;;;;4990607;28;20067;-75
2023/10/15 06:12:10;;;;;;;3.05;1.52;;;5.80;99.90;;;;;;4959705;28;20118;-75
2023/10/15 06:14:36;;;;;;;4.88;1.65;;;5.90;99.90;;;;;;5004103;28;20121;-76
2023/10/15 06:17:03;;;;;;;0.73;0.68;;;5.90;99.90;;;;;;4987843;28;20046;-76
2023/10/15 06:19:31;;;;;;;3.47;1.60;;;5.90;99.90;;;;;;4979569;28;20046;-75
2023/10/15 06:21:57;;;;;;;2.28;1.00;;;5.90;99.90;;;;;;4984766;28;20497;-75
2023/10/15 06:24:23;;;;;;;3.15;1.85;;;5.90;99.90;;;;;;4999857;28;20044;-75
2023/10/15 06:26:50;;;;;;;6.28;1.55;;;5.90;99.90;;;;;;5003072;28;20413;-75
2023/10/15 06:29:16;;;;;;;2.17;1.00;;;5.90;99.90;;;;;;4992181;28;20044;-74
2023/10/15 06:31:41;;;;;;;4.97;1.85;;;5.90;99.90;;;;;;4983440;28;20480;-75
2023/10/15 06:34:07;;;;;;;5.78;2.33;;;6.00;99.90;;;;;;5002024;28;20385;-74
2023/10/15 06:36:33;;;;;;;7.03;2.03;;;5.90;99.90;;;;;;4981431;28;20046;-74
2023/10/15 06:39:00;;;;;;;3.40;1.55;;;5.90;99.90;;;;;;4971383;28;20069;-75
2023/10/15 06:41:27;;;;;;;3.53;1.67;;;5.90;99.90;;;;;;4999592;28;20042;-74
2023/10/15 06:43:53;;;;;;;1.13;0.88;;;6.00;99.90;;;;;;4984237;28;20050;-74
2023/10/15 06:46:19;;;;;;;3.42;1.60;;;6.00;99.90;;;;;;5006589;28;20046;-75
2023/10/15 06:48:45;;;;;;;3.15;1.83;;;6.00;99.90;;;;;;4989370;28;20048;-74
2023/10/15 06:51:12;;;;;;;4.43;1.30;;;6.10;99.90;;;;;;4989495;28;20034;-74
2023/10/15 06:53:38;;;;;;;2.53;1.10;;;6.20;99.90;;;;;;4981455;28;20046;-73
2023/10/15 06:56:07;;;;;;;2.78;1.35;;;6.20;99.90;;;;;;4978418;28;20077;-74
2023/10/15 06:58:35;;;;;;;2.83;1.52;;;6.20;99.90;;;;;;5000136;28;20042;-74
2023/10/15 07:01:07;;;;;;;2.40;1.10;;;6.20;99.90;;;;;;4994138;28;20056;-75
2023/10/15 07:03:33;;;;;;;3.80;1.30;;;6.30;99.90;;;;;;4993134;28;20114;-74
2023/10/15 07:05:59;;;;;;;3.22;1.20;;;6.20;99.90;;;;;;5011191;28;20451;-73
2023/10/15 07:08:25;;;;;;;2.17;1.05;;;6.30;99.90;;;;;;4978485;28;20046;-73
2023/10/15 07:10:51;;;;;;;4.50;1.40;;;6.30;99.90;;;;;;4991254;28;20386;-73
2023/10/15 07:13:19;;;;;;;7.90;1.48;;;6.30;99.90;;;;;;5003575;28;20058;-72
2023/10/15 07:15:47;;;;;;;3.13;1.45;;;6.30;99.90;;;;;;5010926;28;20041;-73
2023/10/15 07:18:13;;;;;;;2.92;0.82;;;6.30;99.90;;;;;;4994808;28;20041;-73
2023/10/15 07:20:39;;;;;;;3.03;1.60;;;6.30;99.90;;;;;;5009945;28;20164;-72
2023/10/15 07:23:05;;;;;;;2.67;1.33;;;6.30;99.90;;;;;;4974836;28;20049;-72
2023/10/15 07:25:32;;;;;;;4.07;1.50;;;6.30;99.90;;;;;;5009929;28;20396;-73
2023/10/15 07:27:59;;;;;;;2.33;1.48;;;6.30;99.90;;;;;;5010289;28;20041;-73
2023/10/15 07:30:26;;;;;;;3.05;1.30;;;6.30;99.90;;;;;;5006811;28;20042;-73
2023/10/15 07:32:53;;;;;;;2.33;0.98;;;6.30;99.90;;;;;;4991568;28;20034;-73
2023/10/15 07:35:21;;;;;;;1.98;1.40;;;6.40;99.90;;;;;;4989224;28;20505;-73
2023/10/15 07:37:51;;;;;;;2.13;1.33;;;6.40;99.90;;;;;;5000528;28;20164;-72
2023/10/15 07:40:18;;;;;;;2.50;1.20;;;6.40;99.90;;;;;;5006981;28;20034;-73
2023/10/15 07:42:48;;;;;;;2.30;1.33;;;6.40;99.90;;;;;;4991217;28;20050;-73
2023/10/15 07:45:15;;;;;;;3.90;1.73;;;6.50;99.90;;;;;;4983942;28;20038;-73
2023/10/15 07:47:41;;;;;;;4.10;2.08;;;6.50;99.90;;;;;;5007692;28;20053;-72
2023/10/15 07:50:09;;;;;;;3.90;1.83;;;6.50;99.90;;;;;;5007734;28;20046;-72
2023/10/15 07:52:35;;;;;;;3.22;1.40;;;6.60;99.90;;;;;;5001991;28;20137;-73
2023/10/15 07:55:01;;;;;;;2.60;1.48;;;6.60;99.90;;;;;;5013399;28;20516;-73
2023/10/15 07:57:27;;;;;;;3.60;1.30;;;6.70;99.90;;;;;;5009359;28;20049;-73
2023/10/15 07:59:58;;;;;;;2.90;1.48;;;6.70;99.90;;;;;;5007197;28;20038;-74
2023/10/15 08:02:28;;;;;;;2.20;1.70;;;6.60;99.90;;;;;;5003722;28;20052;-75
2023/10/15 08:04:54;;;;;;;7.28;3.53;;;6.50;99.90;;;;;;4996429;28;20042;-75
2023/10/15 08:07:23;;;;;;;7.20;4.22;;;6.40;99.90;;;;;;4976856;28;20038;-75
2023/10/15 08:09:52;;;;;;;2.17;1.40;;;6.40;99.90;;;;;;5003090;28;20030;-77
2023/10/15 08:12:18;;;;;;;2.28;1.27;;;6.40;99.90;;;;;;4980514;28;20405;-75
2023/10/15 08:14:48;;;;;;;5.50;1.58;;;6.30;99.90;;;;;;5001370;28;20054;-74
2023/10/15 08:17:14;;;;;;;3.92;1.80;;;6.20;99.90;;;;;;5010820;28;20044;-74
2023/10/15 08:19:40;;;;;;;3.20;1.40;;;6.20;99.90;;;;;;4994523;28;20038;-75
2023/10/15 08:22:06;;;;;;;4.93;2.60;;;6.20;99.90;;;;;;4995181;28;20046;-75
2023/10/15 08:24:32;;;;;;;3.00;1.80;;;6.20;99.90;;;;;;4992507;28;20161;-75
2023/10/15 08:26:57;;;;;;;2.33;1.52;;;6.20;99.90;;;;;;5009755;28;20520;-75
2023/10/15 08:29:23;;;;;;;3.17;1.27;;;6.20;99.90;;;;;;4991701;28;20053;-75
2023/10/15 08:31:49;;;;;;;1.80;1.02;;;6.20;99.90;;;;;;5012570;28;20037;-75
2023/10/15 08:34:15;;;;;;;2.33;1.20;;;6.20;99.90;;;;;;4992855;28;20049;-75
2023/10/15 08:36:42;;;;;;;2.35;1.27;;;6.20;99.90;;;;;;4992002;28;20049;-74
2023/10/15 08:39:08;;;;;;;2.58;1.42;;;6.20;99.90;;;;;;5008589;28;20513;-74
2023/10/15 08:41:38;;;;;;;1.48;0.77;;;6.20;99.90;;;;;;4992441;28;20049;-75
2023/10/15 08:44:07;;;;;;;2.28;1.23;;;6.20;99.90;;;;;;5009360;28;20054;-74
2023/10/15 08:46:37;;;;;;;2.42;1.23;;;6.20;99.90;;;;;;5005501;28;20085;-75
2023/10/15 08:49:06;;;;;;;5.15;1.25;;;6.30;99.90;;;;;;4996802;28;20046;-74
2023/10/15 08:51:34;;;;;;;3.55;1.20;;;6.40;99.90;;;;;;4993632;28;20042;-75
2023/10/15 08:54:02;;;;;;;3.10;1.30;;;6.50;99.90;;;;;;4966473;28;20488;-75
2023/10/15 08:56:30;;;;;;;2.17;1.08;;;6.60;99.90;;;;;;5011558;28;20046;-74
2023/10/15 08:58:57;;;;;;;3.58;1.45;;;6.80;99.90;;;;;;5009771;28;20472;-75
2023/10/15 09:01:23;;;;;;;2.55;1.10;;;6.90;99.90;;;;;;4991385;28;20412;-75
2023/10/15 09:03:52;;;;;;;2.08;1.08;;;7.10;99.90;;;;;;4962897;28;20347;-74
2023/10/15 09:06:22;;;;;;;2.33;1.40;;;7.30;99.90;;;;;;5013251;28;20038;-75
2023/10/15 09:08:50;;;;;;;4.32;1.15;;;7.60;99.90;;;;;;4996163;28;20034;-75
2023/10/15 09:11:17;;;;;;;3.25;1.17;;;7.80;99.90;;;;;;4995922;28;20493;-75
2023/10/15 09:13:50;;;;;;;4.65;1.23;;;7.90;99.90;;;;;;5028710;28;20038;-75
2023/10/15 09:16:16;;;;;;;5.38;1.60;;;7.80;99.90;;;;;;4990614;28;20523;-75
2023/10/15 09:18:43;;;;;;;4.38;2.25;;;7.70;99.90;;;;;;5009839;28;20046;-76
2023/10/15 09:21:09;;;;;;;4.28;1.65;;;7.60;99.90;;;;;;4995107;28;20038;-75
2023/10/15 09:23:37;;;;;;;3.22;1.40;;;7.70;99.90;;;;;;5000939;28;20096;-75
2023/10/15 09:26:07;;;;;;;3.30;1.17;;;7.90;99.90;;;;;;5002569;28;20049;-75
2023/10/15 09:28:35;;;;;;;3.03;1.40;;;8.10;99.90;;;;;;5006624;28;20445;-75
2023/10/15 09:31:11;;;;;;;2.47;1.10;;;8.30;99.90;;;;;;4993918;28;20520;-74
2023/10/15 09:33:38;;;;;;;3.10;1.23;;;8.30;99.90;;;;;;5008360;28;20049;-74
2023/10/15 09:36:05;;;;;;;3.60;1.40;;;8.20;99.90;;;;;;4993895;28;20042;-75
2023/10/15 09:38:32;;;;;;;4.82;1.45;;;8.20;99.90;;;;;;5000659;28;20089;-75
2023/10/15 09:40:58;;;;;;;5.35;1.70;;;8.30;99.90;;;;;;4995459;28;20386;-73
2023/10/15 09:43:31;;;;;;;3.78;1.40;;;8.50;99.90;;;;;;4986249;28;20045;-74
2023/10/15 09:46:00;;;;;;;;;;;8.50;99.90;;;;;;4993514;28;21452;-73
2023/10/15 09:48:27;;;;;;;4.25;1.42;;;8.40;99.90;;;;;;5007626;28;20031;-75
2023/10/15 09:50:59;;;;;;;2.85;1.30;;;8.40;99.90;;;;;;4980444;28;20030;-74
2023/10/15 09:53:32;;;;;;;;;;;8.50;99.90;;;;;;4983317;28;20042;-75
2023/10/15 09:55:59;;;;;;;;;;;8.60;99.90;;;;;;5001565;28;19952;-74
2023/10/15 09:58:25;;;;;;;3.25;1.42;;;8.70;99.90;;;;;;4989562;28;19983;-74
2023/10/15 10:03:30;;;;;;;2.67;1.30;;;9.00;99.90;;;;;;4998323;28;20084;-74
2023/10/15 10:06:36;;;;;;;5.00;2.00;;;9.00;99.90;;;;;;4989050;28;20034;-75
2023/10/15 10:09:28;;;;;;;4.22;1.65;;;9.00;99.90;;;;;;4961380;28;20116;-74
2023/10/15 10:12:08;;;;;;;3.33;1.60;;;9.10;99.90;;;;;;4986614;28;20046;-75
2023/10/15 10:15:08;;;;;;;4.60;1.65;;;9.10;99.90;;;;;;5002630;28;20049;-75
2023/10/15 10:17:34;;;;;;;4.85;1.70;;;9.20;99.90;;;;;;4997723;28;21274;-75
2023/10/15 10:20:11;;;;;;;4.93;1.83;;;9.20;99.90;;;;;;5003170;28;20034;-75
2023/10/15 10:22:38;;;;;;;4.45;1.75;;;9.10;99.90;;;;;;4999647;28;20076;-75
2023/10/15 10:25:04;;;;;;;6.88;2.97;;;9.10;99.90;;;;;;5003083;28;20038;-76
2023/10/15 10:27:43;;;;;;;5.38;2.00;;;9.10;99.90;;;;;;4996994;28;20101;-75
2023/10/15 10:30:27;;;;;;;6.63;1.75;;;9.10;99.90;;;;;;4998045;28;20043;-75
2023/10/15 10:32:55;;;;;;;6.18;1.95;;;9.10;99.90;;;;;;5003865;28;20049;-76
2023/10/15 10:35:24;;;;;;;8.32;2.35;;;9.10;99.90;;;;;;4988530;28;20053;-75
2023/10/15 10:38:05;;;;;;;6.22;1.90;;;9.10;99.90;;;;;;4990529;28;20070;-76
2023/10/15 10:41:03;;;;;;;8.20;2.10;;;9.30;99.90;;;;;;5006541;28;20051;-75
2023/10/15 10:43:29;;;;;;;5.63;2.08;;;9.60;99.90;;;;;;4989833;28;20039;-76
2023/10/15 10:46:00;;;;;;;3.55;1.58;;;9.90;99.90;;;;;;5007861;28;20053;-75
2023/10/15 10:48:33;;;;;;;6.70;2.33;;;10.10;99.90;;;;;;5011088;28;20050;-74
2023/10/15 10:51:08;;;;;;;7.25;2.40;;;10.20;99.90;;;;;;4995351;28;20061;-75
2023/10/15 10:53:34;;;;;;;6.82;2.40;;;10.40;99.90;;;;;;4999174;28;20112;-76
2023/10/15 10:56:04;;;;;;;5.55;2.33;;;10.60;99.90;;;;;;4986538;28;20525;-75
2023/10/15 10:58:30;;;;;;;4.30;2.08;;;10.70;99.90;;;;;;4989131;28;20042;-75
2023/10/15 11:00:59;;;;;;;7.75;1.98;;;10.90;99.90;;;;;;4990451;28;20516;-76
2023/10/15 11:03:25;;;;;;;3.75;1.60;;;10.90;99.90;;;;;;4986976;28;20133;-76
2023/10/15 11:05:58;;;;;;;8.45;1.88;;;10.70;99.90;;;;;;4993860;28;20026;-75
2023/10/15 11:08:24;;;;;;;3.25;1.23;;;10.40;99.90;;;;;;4988891;28;20389;-76
2023/10/15 11:10:50;;;;;;;5.25;1.58;;;10.00;99.90;;;;;;5001269;28;20049;-74
2023/10/15 11:13:16;;;;;;;4.18;1.52;;;9.70;99.90;;;;;;4985368;28;20042;-73
2023/10/15 11:15:52;;;;;;;7.28;1.65;;;9.40;99.90;;;;;;4997970;28;20034;-74
2023/10/15 11:18:24;;;;;;;3.35;1.40;;;9.40;99.90;;;;;;4984195;28;20121;-76
2023/10/15 11:20:53;;;;;;;6.07;1.60;;;9.60;99.90;;;;;;5020418;28;20172;-74
2023/10/15 11:23:23;;;;;;;9.30;1.80;;;9.80;99.90;;;;;;5001375;28;20140;-76
2023/10/15 11:25:51;;;;;;;4.55;2.10;;;9.90;99.90;;;;;;5001984;28;20069;-75
2023/10/15 11:28:18;;;;;;;5.72;1.70;;;10.00;99.90;;;;;;5009567;28;20095;-75
2023/10/15 11:30:45;;;;;;;3.92;1.55;;;10.10;99.90;;;;;;5000839;28;20073;-76
2023/10/15 11:33:12;;;;;;;4.90;1.67;;;10.30;99.90;;;;;;4981597;28;20042;-75
2023/10/15 11:35:38;;;;;;;4.43;2.03;;;10.50;99.90;;;;;;4985285;28;20037;-75
2023/10/15 11:38:10;;;;;;;5.68;1.45;;;10.60;99.90;;;;;;4988597;28;20103;-73
2023/10/15 11:40:38;;;;;;;2.75;1.50;;;10.70;99.90;;;;;;4984020;28;20038;-74
2023/10/15 11:43:12;;;;;;;5.38;1.95;;;10.80;99.90;;;;;;5000969;28;20121;-74
2023/10/15 11:45:39;;;;;;;4.05;1.40;;;10.90;99.90;;;;;;5009530;28;20034;-72
2023/10/15 11:48:11;;;;;;;3.90;1.52;;;11.00;99.90;;;;;;5000679;28;20038;-71
2023/10/15 11:50:44;;;;;;;5.40;1.67;;;11.10;99.90;;;;;;5010552;28;20104;-71
2023/10/15 11:53:16;;;;;;;3.20;1.38;;;11.20;99.90;;;;;;5001149;28;20073;-72
2023/10/15 11:55:47;;;;;;;4.50;1.92;;;11.20;99.90;;;;;;5013031;28;20033;-72
2023/10/15 11:58:19;;;;;;;6.53;2.08;;;11.40;99.90;;;;;;4984583;28;20045;-73
2023/10/15 12:00:48;;;;;;;5.00;1.92;;;11.50;99.90;;;;;;4984512;28;20049;-72
2023/10/15 12:03:16;;;;;;;5.63;1.55;;;11.50;99.90;;;;;;4999612;28;20042;-72
2023/10/15 12:05:42;;;;;;;5.72;1.52;;;11.60;99.90;;;;;;4987075;28;20038;-72
2023/10/15 12:08:12;;;;;;;5.80;1.90;;;11.60;99.90;;;;;;5002737;28;20034;-72
2023/10/15 12:10:42;;;;;;;6.07;1.77;;;11.80;99.90;;;;;;4987722;28;20489;-73
2023/10/15 12:13:09;;;;;;;5.63;2.10;;;11.90;99.90;;;;;;4989342;28;20053;-73
2023/10/15 12:15:35;;;;;;;4.63;1.88;;;11.90;99.90;;;;;;5000171;28;20046;-73
2023/10/15 12:18:04;;;;;;;4.68;1.80;;;11.90;99.90;;;;;;4985162;28;20057;-72
2023/10/15 12:20:30;;;;;;;3.67;1.73;;;11.90;99.90;;;;;;5006442;28;20052;-75
2023/10/15 12:22:56;;;;;;;5.70;1.85;;;12.00;99.90;;;;;;4999375;28;20513;-75
2023/10/15 12:25:22;;;;;;;5.57;1.98;;;12.10;99.90;;;;;;4998396;28;20068;-75
2023/10/15 12:27:48;;;;;;;6.85;2.25;;;12.10;99.90;;;;;;4985421;28;20072;-72
2023/10/15 12:30:23;;;;;;;5.82;2.10;;;12.00;99.90;;;;;;4991882;28;20042;-73
2023/10/15 12:32:55;;;;;;;4.35;1.98;;;11.90;99.90;;;;;;4996380;28;20042;-73
2023/10/15 12:35:22;;;;;;;3.80;1.50;;;12.00;99.90;;;;;;5005088;28;20398;-74
2023/10/15 12:37:58;;;;;;;9.13;1.73;;;12.10;99.90;;;;;;4990175;28;20119;-74
2023/10/15 12:40:31;;;;;;;9.20;1.75;;;12.00;99.90;;;;;;4983605;28;20034;-74
2023/10/15 12:42:59;;;;;;;4.78;1.67;;;12.10;99.90;;;;;;4996056;28;20513;-73
2023/10/15 12:45:25;;;;;;;4.05;1.77;;;12.00;99.90;;;;;;5012756;28;20046;-74
2023/10/15 12:47:51;;;;;;;6.78;2.20;;;11.80;99.90;;;;;;4993494;28;20034;-74
2023/10/15 12:50:17;;;;;;;5.20;1.58;;;11.60;99.90;;;;;;4984050;28;20081;-75
2023/10/15 12:52:52;;;;;;;4.38;1.70;;;11.40;99.90;;;;;;4983505;28;20344;-73
2023/10/15 12:55:20;;;;;;;6.32;1.85;;;11.20;99.90;;;;;;4989896;28;20034;-72
2023/10/15 12:57:50;;;;;;;4.35;1.50;;;11.10;99.90;;;;;;4992660;28;20065;-72
2023/10/15 13:00:21;;;;;;;3.90;1.83;;;10.90;99.90;;;;;;5004020;28;20050;-72
2023/10/15 13:02:54;;;;;;;6.00;1.63;;;10.90;99.90;;;;;;4979923;28;20559;-71
2023/10/15 13:05:21;;;;;;;5.95;1.83;;;10.80;99.90;;;;;;5001685;28;20031;-72
2023/10/15 13:07:49;;;;;;;4.07;1.55;;;10.80;99.90;;;;;;5008307;28;20037;-72
2023/10/15 13:10:17;;;;;;;5.13;1.60;;;10.80;99.90;;;;;;5004326;28;20034;-74
2023/10/15 13:12:50;;;;;;;4.95;2.05;;;11.00;99.90;;;;;;4994033;28;20041;-74
2023/10/15 13:15:18;;;;;;;5.35;1.90;;;11.10;99.90;;;;;;5008631;28;20044;-76
2023/10/15 13:17:54;;;;;;;7.60;2.15;;;11.30;99.90;;;;;;5012653;28;20040;-75
2023/10/15 13:20:21;;;;;;;12.10;2.45;;;11.40;99.90;;;;;;5011608;28;20050;-76